createdAt,value
2017-04-27T00:00:10.752Z,94.50
2017-04-27T00:02:39.101Z,94.40
2017-04-27T00:05:07.420Z,94.40
2017-04-27T00:07:35.917Z,94.40
2017-04-27T00:18:44.348Z,94.60
2017-04-27T00:21:12.664Z,94.60
2017-04-27T00:23:40.981Z,94.60
2017-04-27T00:26:09.351Z,94.80
2017-04-27T00:28:37.680Z,94.70
2017-04-27T00:31:06.013Z,94.60
2017-04-27T00:33:35.117Z,94.60
2017-04-27T00:36:03.437Z,94.60
2017-04-27T00:38:31.764Z,94.70
2017-04-27T00:41:00.977Z,94.90
2017-04-27T00:43:30.040Z,94.70
2017-04-27T00:45:58.363Z,94.50
2017-04-27T00:48:27.008Z,94.50
2017-04-27T00:50:55.335Z,94.40
2017-04-27T00:53:23.672Z,94.40
2017-04-27T00:55:52.803Z,94.40
2017-04-27T00:58:21.112Z,94.40
2017-04-27T01:00:49.437Z,94.30
2017-04-27T01:03:18.014Z,94.30
2017-04-27T01:05:47.084Z,94.30
2017-04-27T01:08:15.404Z,94.50
2017-04-27T01:10:43.776Z,94.40
2017-04-27T01:13:12.093Z,94.60
2017-04-27T01:15:40.405Z,94.60
2017-04-27T01:18:09.644Z,94.70
2017-04-27T01:20:38.047Z,94.70
2017-04-27T01:23:06.369Z,95.10
2017-04-27T01:25:34.711Z,94.80
2017-04-27T01:28:03.020Z,94.80
2017-04-27T01:30:32.089Z,94.80
2017-04-27T01:33:00.448Z,94.80
2017-04-27T01:35:28.769Z,94.90
2017-04-27T01:37:57.862Z,94.80
2017-04-27T01:40:27.915Z,94.80
2017-04-27T01:42:56.231Z,94.80
2017-04-27T01:45:24.551Z,94.60
2017-04-27T01:47:53.221Z,94.40
2017-04-27T01:50:21.543Z,94.30
2017-04-27T01:52:49.882Z,94.20
2017-04-27T01:55:18.452Z,94.20
2017-04-27T01:57:46.787Z,94.30
2017-04-27T02:00:15.118Z,93.80
2017-04-27T02:02:44.204Z,93.80
2017-04-27T02:05:13.275Z,94.20
2017-04-27T02:07:41.597Z,94.10
2017-04-27T02:10:10.152Z,93.90
2017-04-27T02:12:38.490Z,93.70
2017-04-27T02:15:06.807Z,93.90
2017-04-27T02:17:35.927Z,93.50
2017-04-27T02:20:04.273Z,93.50
2017-04-27T02:22:32.719Z,93.40
2017-04-27T02:25:01.072Z,93.30
2017-04-27T02:27:29.397Z,93.50
2017-04-27T02:29:57.710Z,93.10
2017-04-27T02:32:26.282Z,93.80
2017-04-27T02:34:55.342Z,93.90
2017-04-27T02:37:23.663Z,93.90
2017-04-27T02:39:52.044Z,94.00
2017-04-27T02:42:20.377Z,94.10
2017-04-27T02:44:48.711Z,94.40
2017-04-27T02:47:17.069Z,94.40
2017-04-27T02:49:46.141Z,94.50
2017-04-27T02:52:14.473Z,94.50
2017-04-27T02:54:42.831Z,94.40
2017-04-27T02:57:11.157Z,94.40
2017-04-27T02:59:39.485Z,94.40
2017-04-27T03:02:08.154Z,94.50
2017-04-27T03:04:37.228Z,94.70
2017-04-27T03:07:05.543Z,94.70
2017-04-27T03:09:33.915Z,94.70
2017-04-27T03:12:02.229Z,94.70
2017-04-27T03:14:30.564Z,94.60
2017-04-27T03:16:58.962Z,94.70
2017-04-27T03:19:27.286Z,94.70
2017-04-27T03:21:55.599Z,94.80
2017-04-27T03:24:23.987Z,95.10
2017-04-27T03:26:52.318Z,94.70
2017-04-27T03:29:20.644Z,94.70
2017-04-27T03:31:49.096Z,94.60
2017-04-27T03:34:18.152Z,94.70
2017-04-27T03:36:49.813Z,94.80
2017-04-27T03:39:18.166Z,94.80
2017-04-27T03:41:46.487Z,94.80
2017-04-27T03:44:14.851Z,94.90
2017-04-27T03:46:46.925Z,94.90
2017-04-27T03:49:15.487Z,95.00
2017-04-27T03:51:43.820Z,95.10
2017-04-27T03:54:12.140Z,95.00
2017-04-27T03:56:40.873Z,95.10
2017-04-27T03:59:09.186Z,95.00
2017-04-27T04:01:37.496Z,95.00
2017-04-27T04:04:06.113Z,95.00
2017-04-27T04:06:34.428Z,95.00
2017-04-27T04:09:02.748Z,95.00
2017-04-27T04:11:31.114Z,95.10
2017-04-27T04:13:59.424Z,95.20
2017-04-27T04:16:27.744Z,95.40
2017-04-27T04:18:56.218Z,95.40
2017-04-27T04:21:24.534Z,95.60
2017-04-27T04:23:52.858Z,95.60
2017-04-27T04:26:21.212Z,95.60
2017-04-27T04:28:49.531Z,95.40
2017-04-27T04:31:17.849Z,95.30
2017-04-27T04:33:46.220Z,95.20
2017-04-27T04:36:14.539Z,95.50
2017-04-27T04:38:42.852Z,96.10
2017-04-27T04:41:11.316Z,96.50
2017-04-27T04:43:40.544Z,96.80
2017-04-27T04:46:08.966Z,97.20
2017-04-27T04:48:37.319Z,97.60
2017-04-27T04:51:06.387Z,97.80
2017-04-27T04:53:34.699Z,97.80
2017-04-27T04:56:04.094Z,97.90
2017-04-27T04:58:32.429Z,97.90
2017-04-27T05:01:00.765Z,98.10
2017-04-27T05:03:29.298Z,97.90
2017-04-27T05:05:58.432Z,97.90
2017-04-27T05:08:26.780Z,98.00
2017-04-27T05:10:55.604Z,97.90
2017-04-27T05:13:23.933Z,98.30
2017-04-27T05:15:52.282Z,97.80
2017-04-27T05:18:20.950Z,97.60
2017-04-27T05:20:49.273Z,97.30
2017-04-27T05:23:17.610Z,97.40
2017-04-27T05:25:46.376Z,96.90
2017-04-27T05:28:14.698Z,95.80
2017-04-27T05:30:43.039Z,95.40
2017-04-27T05:33:12.164Z,96.10
2017-04-27T05:35:40.512Z,96.20
2017-04-27T05:38:09.568Z,95.30
2017-04-27T05:40:38.064Z,94.90
2017-04-27T05:43:06.388Z,94.90
2017-04-27T05:45:34.786Z,95.20
2017-04-27T05:48:03.333Z,94.40
2017-04-27T05:50:31.676Z,94.30
2017-04-27T05:53:00.005Z,94.30
2017-04-27T05:55:28.495Z,94.70
2017-04-27T05:57:56.813Z,95.00
2017-04-27T06:00:25.132Z,95.40
2017-04-27T06:02:53.628Z,94.40
2017-04-27T06:05:21.954Z,92.10
2017-04-27T06:07:51.018Z,92.10
2017-04-27T06:10:19.496Z,91.40
2017-04-27T06:12:47.817Z,90.80
2017-04-27T06:15:17.159Z,90.80
2017-04-27T06:17:45.817Z,91.30
2017-04-27T06:20:14.161Z,91.00
2017-04-27T06:22:42.491Z,90.40
2017-04-27T06:25:10.948Z,89.20
2017-04-27T06:27:39.478Z,89.50
2017-04-27T06:30:07.792Z,89.00
2017-04-27T06:32:36.419Z,89.50
2017-04-27T06:35:04.756Z,89.60
2017-04-27T06:37:33.813Z,88.30
2017-04-27T06:40:02.201Z,87.00
2017-04-27T06:42:30.519Z,86.30
2017-04-27T06:44:58.846Z,87.20
2017-04-27T06:47:27.573Z,86.60
2017-04-27T06:49:55.893Z,85.50
2017-04-27T06:52:24.207Z,85.20
2017-04-27T06:54:52.805Z,84.80
2017-04-27T06:57:21.869Z,84.30
2017-04-27T06:59:50.205Z,85.20
2017-04-27T07:02:18.660Z,85.80
2017-04-27T07:04:46.974Z,85.50
2017-04-27T07:07:15.296Z,85.00
2017-04-27T07:09:43.860Z,85.30
2017-04-27T07:12:12.191Z,83.30
2017-04-27T07:14:40.537Z,82.50
2017-04-27T07:17:09.880Z,82.50
2017-04-27T07:19:38.194Z,83.10
2017-04-27T07:22:06.538Z,83.40
2017-04-27T07:24:35.189Z,83.00
2017-04-27T07:27:03.505Z,81.70
2017-04-27T07:29:31.837Z,82.40
2017-04-27T07:32:01.149Z,81.00
2017-04-27T07:34:30.212Z,79.80
2017-04-27T07:36:58.536Z,80.30
2017-04-27T07:39:26.899Z,80.00
2017-04-27T07:41:55.223Z,78.50
2017-04-27T07:44:23.544Z,77.80
2017-04-27T07:46:52.661Z,76.80
2017-04-27T07:49:20.994Z,77.80
2017-04-27T07:51:49.313Z,77.90
2017-04-27T07:56:47.356Z,76.60
2017-04-27T07:59:15.685Z,75.20
2017-04-27T08:01:44.042Z,72.90
2017-04-27T08:04:12.369Z,73.60
2017-04-27T08:06:40.687Z,74.80
2017-04-27T08:09:10.296Z,73.80
2017-04-27T08:11:39.365Z,73.90
2017-04-27T08:14:07.693Z,74.90
2017-04-27T08:16:36.258Z,75.10
2017-04-27T08:19:05.320Z,75.40
2017-04-27T08:21:33.652Z,76.00
2017-04-27T08:24:02.105Z,75.60
2017-04-27T08:26:31.211Z,75.60
2017-04-27T08:28:59.529Z,75.80
2017-04-27T08:31:27.889Z,72.00
2017-04-27T08:33:56.201Z,70.90
2017-04-27T08:36:24.526Z,71.80
2017-04-27T08:38:52.973Z,72.50
2017-04-27T08:41:22.036Z,74.20
2017-04-27T08:43:51.158Z,74.20
2017-04-27T08:46:19.741Z,72.60
2017-04-27T08:48:48.055Z,72.60
2017-04-27T08:51:16.377Z,72.70
2017-04-27T08:53:44.846Z,70.20
2017-04-27T08:56:13.159Z,71.40
2017-04-27T08:58:42.235Z,71.20
2017-04-27T09:01:10.641Z,71.60
2017-04-27T09:03:39.777Z,69.50
2017-04-27T09:06:08.100Z,67.70
2017-04-27T09:08:36.566Z,66.80
2017-04-27T09:11:04.872Z,64.70
2017-04-27T09:13:33.939Z,65.00
2017-04-27T09:16:02.555Z,65.50
2017-04-27T09:18:31.132Z,65.30
2017-04-27T09:21:00.197Z,63.70
2017-04-27T09:23:28.572Z,64.30
2017-04-27T09:25:56.909Z,63.10
2017-04-27T09:28:25.241Z,63.10
2017-04-27T09:30:53.731Z,61.80
2017-04-27T09:33:22.052Z,61.30
2017-04-27T09:35:50.382Z,60.90
2017-04-27T09:38:19.515Z,60.80
2017-04-27T09:40:47.862Z,59.30
2017-04-27T09:43:16.960Z,57.40
2017-04-27T09:45:45.686Z,57.70
2017-04-27T09:48:14.024Z,57.90
2017-04-27T09:50:42.371Z,56.90
2017-04-27T09:53:10.892Z,55.80
2017-04-27T09:55:39.960Z,56.60
2017-04-27T09:58:09.084Z,56.20
2017-04-27T10:00:38.361Z,55.30
2017-04-27T10:03:06.701Z,55.70
2017-04-27T10:05:35.028Z,56.50
2017-04-27T10:08:06.290Z,59.20
2017-04-27T10:10:34.632Z,65.90
2017-04-27T10:13:02.959Z,69.00
2017-04-27T10:15:31.449Z,71.60
2017-04-27T10:17:59.775Z,72.70
2017-04-27T10:20:28.855Z,73.40
2017-04-27T10:22:57.342Z,75.10
2017-04-27T10:25:25.670Z,76.80
2017-04-27T10:27:54.105Z,77.40
2017-04-27T10:30:22.613Z,77.70
2017-04-27T10:32:50.939Z,76.80
2017-04-27T10:35:19.265Z,76.20
2017-04-27T10:37:47.650Z,76.60
2017-04-27T10:40:16.005Z,76.60
2017-04-27T10:42:45.081Z,75.60
2017-04-27T10:45:13.742Z,74.20
2017-04-27T10:47:42.060Z,73.60
2017-04-27T10:50:11.129Z,73.50
2017-04-27T10:52:39.525Z,73.60
2017-04-27T10:55:08.586Z,73.10
2017-04-27T10:57:36.908Z,71.90
2017-04-27T11:00:06.025Z,71.40
2017-04-27T11:02:34.352Z,70.70
2017-04-27T11:05:02.680Z,69.40
2017-04-27T11:07:31.049Z,67.70
2017-04-27T11:09:59.431Z,64.30
2017-04-27T11:12:27.784Z,63.20
2017-04-27T11:14:57.285Z,60.50
2017-04-27T11:17:25.620Z,60.50
2017-04-27T11:19:53.957Z,60.70
2017-04-27T11:22:23.174Z,61.80
2017-04-27T11:24:51.503Z,61.70
2017-04-27T11:27:19.818Z,62.50
2017-04-27T11:29:48.292Z,62.40
2017-04-27T11:32:16.638Z,62.50
2017-04-27T11:34:44.968Z,62.60
2017-04-27T11:37:13.632Z,61.40
2017-04-27T11:39:41.963Z,58.60
2017-04-27T11:42:10.296Z,57.60
2017-04-27T11:44:39.072Z,58.20
2017-04-27T11:47:07.431Z,58.60
2017-04-27T11:49:35.768Z,58.00
2017-04-27T11:52:04.539Z,57.30
2017-04-27T11:54:32.876Z,58.70
2017-04-27T11:57:01.207Z,58.30
2017-04-27T11:59:29.711Z,56.60
2017-04-27T12:01:58.041Z,55.80
2017-04-27T12:04:26.364Z,56.10
2017-04-27T12:06:54.752Z,56.10
2017-04-27T12:09:23.083Z,55.80
2017-04-27T12:11:51.423Z,55.50
2017-04-27T12:14:20.131Z,56.40
2017-04-27T12:16:48.502Z,58.20
2017-04-27T12:19:17.575Z,59.40
2017-04-27T12:21:45.971Z,61.20
2017-04-27T12:24:15.038Z,61.80
2017-04-27T12:26:43.370Z,63.60
2017-04-27T12:29:11.914Z,64.50
2017-04-27T12:31:40.245Z,63.70
2017-04-27T12:34:08.576Z,64.90
2017-04-27T12:36:37.706Z,65.30
2017-04-27T12:39:06.367Z,63.30
2017-04-27T12:41:35.433Z,61.60
2017-04-27T12:44:03.841Z,62.10
2017-04-27T12:46:32.916Z,62.10
2017-04-27T12:49:01.249Z,63.70
2017-04-27T12:51:29.804Z,64.60
2017-04-27T12:53:58.137Z,64.50
2017-04-27T12:56:26.464Z,64.30
2017-04-27T12:58:54.953Z,64.00
2017-04-27T13:01:23.298Z,63.90
2017-04-27T13:03:51.639Z,64.40
2017-04-27T13:06:20.019Z,60.80
2017-04-27T13:08:48.386Z,58.50
2017-04-27T13:11:16.735Z,57.70
2017-04-27T13:13:45.219Z,57.50
2017-04-27T13:16:13.544Z,56.90
2017-04-27T13:18:41.895Z,56.40
2017-04-27T13:21:10.281Z,56.50
2017-04-27T13:23:38.620Z,56.10
2017-04-27T13:26:06.981Z,56.30
2017-04-27T13:28:36.343Z,55.00
2017-04-27T13:31:04.668Z,55.00
2017-04-27T13:33:32.995Z,53.80
2017-04-27T13:36:01.386Z,54.10
2017-04-27T13:38:29.994Z,54.40
2017-04-27T13:41:00.279Z,55.30
2017-04-27T13:43:28.603Z,56.40
2017-04-27T13:45:57.876Z,57.50
2017-04-27T13:48:26.217Z,59.00
2017-04-27T13:50:54.553Z,60.40
2017-04-27T13:53:23.792Z,61.50
2017-04-27T13:55:52.110Z,63.30
2017-04-27T13:58:20.503Z,65.10
2017-04-27T14:00:48.910Z,66.00
2017-04-27T14:03:17.245Z,65.40
2017-04-27T14:05:45.576Z,65.70
2017-04-27T14:08:14.137Z,65.40
2017-04-27T14:10:42.463Z,64.00
2017-04-27T14:13:10.831Z,62.20
2017-04-27T14:15:39.360Z,62.80
2017-04-27T14:18:08.420Z,62.90
2017-04-27T14:20:36.753Z,63.20
2017-04-27T14:23:05.139Z,62.50
2017-04-27T14:25:33.456Z,63.40
2017-04-27T14:28:01.793Z,63.60
2017-04-27T14:30:30.155Z,62.40
2017-04-27T14:32:58.492Z,58.20
2017-04-27T14:35:26.834Z,57.00
2017-04-27T14:37:55.224Z,55.70
2017-04-27T14:40:23.547Z,54.60
2017-04-27T14:42:52.628Z,54.80
2017-04-27T14:45:21.128Z,55.40
2017-04-27T14:47:50.192Z,56.10
2017-04-27T14:50:18.555Z,56.20
2017-04-27T14:52:46.942Z,56.70
2017-04-27T14:55:15.268Z,55.50
2017-04-27T14:57:43.675Z,57.70
2017-04-27T15:00:12.333Z,58.20
2017-04-27T15:02:40.652Z,58.10
2017-04-27T15:05:08.968Z,59.30
2017-04-27T15:07:38.277Z,56.80
2017-04-27T15:10:07.343Z,56.40
2017-04-27T15:12:35.681Z,54.10
2017-04-27T15:15:04.251Z,54.20
2017-04-27T15:17:32.594Z,53.50
2017-04-27T15:20:00.932Z,53.50
2017-04-27T15:22:29.285Z,53.80
2017-04-27T15:24:57.612Z,54.70
2017-04-27T15:27:25.941Z,54.30
2017-04-27T15:29:54.507Z,52.70
2017-04-27T15:32:23.569Z,53.40
2017-04-27T15:34:51.905Z,53.10
2017-04-27T15:37:20.721Z,53.90
2017-04-27T15:39:49.105Z,54.70
2017-04-27T15:42:17.438Z,55.50
2017-04-27T15:44:45.837Z,56.90
2017-04-27T15:47:14.189Z,55.70
2017-04-27T15:49:42.509Z,56.00
2017-04-27T15:52:11.035Z,56.70
2017-04-27T15:54:40.096Z,57.40
2017-04-27T15:57:08.466Z,57.40
2017-04-27T15:59:37.099Z,57.10
2017-04-27T16:02:05.446Z,56.50
2017-04-27T16:04:33.816Z,57.10
2017-04-27T16:07:02.364Z,56.90
2017-04-27T16:09:30.716Z,56.60
2017-04-27T16:11:59.110Z,56.20
2017-04-27T16:14:27.889Z,56.10
2017-04-27T16:16:56.245Z,56.60
2017-04-27T16:19:24.581Z,57.30
2017-04-27T16:21:53.103Z,56.90
2017-04-27T16:24:22.176Z,56.80
2017-04-27T16:26:51.238Z,57.00
2017-04-27T16:29:19.830Z,57.70
2017-04-27T16:31:48.176Z,57.80
2017-04-27T16:34:16.504Z,57.80
2017-04-27T16:36:45.324Z,58.30
2017-04-27T16:39:13.666Z,59.00
2017-04-27T16:41:42.009Z,60.50
2017-04-27T16:44:10.545Z,59.00
2017-04-27T16:46:38.949Z,59.00
2017-04-27T16:49:07.295Z,59.60
2017-04-27T16:51:35.660Z,60.00
2017-04-27T16:54:04.017Z,60.60
2017-04-27T16:56:32.672Z,60.30
2017-04-27T16:59:01.237Z,59.80
2017-04-27T17:01:30.324Z,60.60
2017-04-27T17:03:59.421Z,61.10
2017-04-27T17:06:28.630Z,59.90
2017-04-27T17:08:57.760Z,60.80
2017-04-27T17:11:26.110Z,61.60
2017-04-27T17:13:54.788Z,60.90
2017-04-27T17:16:23.936Z,60.90
2017-04-27T17:18:52.344Z,61.00
2017-04-27T17:21:21.260Z,61.60
2017-04-27T17:23:49.891Z,60.40
2017-04-27T17:26:18.297Z,60.80
2017-04-27T17:28:50.681Z,61.60
2017-04-27T17:31:19.796Z,62.30
2017-04-27T17:33:48.183Z,60.80
2017-04-27T17:36:17.044Z,60.70
2017-04-27T17:38:45.943Z,59.00
2017-04-27T17:41:14.660Z,59.60
2017-04-27T17:43:46.017Z,60.30
2017-04-27T17:46:14.852Z,60.50
2017-04-27T17:48:43.681Z,60.50
2017-04-27T17:51:13.135Z,61.90
2017-04-27T17:53:44.289Z,61.90
2017-04-27T17:56:12.699Z,62.90
2017-04-27T17:58:41.356Z,61.00
2017-04-27T18:01:09.738Z,60.60
2017-04-27T18:03:38.225Z,60.20
2017-04-27T18:06:06.655Z,60.10
2017-04-27T18:08:35.632Z,60.50
2017-04-27T18:11:04.132Z,61.10
2017-04-27T18:13:32.654Z,61.60
2017-04-27T18:16:01.766Z,61.70
2017-04-27T18:18:30.580Z,61.40
2017-04-27T18:20:58.897Z,62.60
2017-04-27T18:23:27.236Z,63.90
2017-04-27T18:25:55.657Z,63.80
2017-04-27T18:28:24.120Z,64.60
2017-04-27T18:30:52.469Z,65.30
2017-04-27T18:33:22.058Z,65.80
2017-04-27T18:35:51.132Z,65.50
2017-04-27T18:38:19.716Z,65.80
2017-04-27T18:40:48.917Z,65.80
2017-04-27T18:43:17.984Z,66.20
2017-04-27T18:45:46.397Z,66.00
2017-04-27T18:48:15.924Z,66.60
2017-04-27T18:50:44.502Z,66.20
2017-04-27T18:53:13.496Z,66.60
2017-04-27T18:55:42.047Z,66.50
2017-04-27T18:58:10.410Z,66.50
2017-04-27T19:00:38.769Z,66.90
2017-04-27T19:03:09.259Z,66.00
2017-04-27T19:05:38.347Z,66.10
2017-04-27T19:08:07.085Z,66.70
2017-04-27T19:10:35.547Z,67.20
2017-04-27T19:13:04.081Z,66.80
2017-04-27T19:15:32.518Z,67.20
2017-04-27T19:18:00.940Z,67.00
2017-04-27T19:20:29.268Z,67.20
2017-04-27T19:22:57.648Z,67.60
2017-04-27T19:25:28.094Z,67.00
2017-04-27T19:27:57.321Z,66.70
2017-04-27T19:30:25.669Z,66.80
2017-04-27T19:32:55.203Z,66.70
2017-04-27T19:35:23.553Z,66.00
2017-04-27T19:37:51.910Z,65.90
2017-04-27T19:40:21.119Z,67.10
2017-04-27T19:42:50.230Z,67.30
2017-04-27T19:45:18.557Z,68.20
2017-04-27T19:47:47.685Z,67.70
2017-04-27T19:50:16.020Z,68.10
2017-04-27T19:52:44.350Z,68.90
2017-04-27T19:55:13.441Z,68.30
2017-04-27T19:57:42.646Z,68.60
2017-04-27T20:00:10.997Z,69.80
2017-04-27T20:02:39.733Z,68.30
2017-04-27T20:05:09.817Z,69.30
2017-04-27T20:07:38.330Z,70.40
2017-04-27T20:10:09.381Z,71.10
2017-04-27T20:12:37.716Z,69.20
2017-04-27T20:15:06.027Z,69.40
2017-04-27T20:17:35.960Z,70.00
2017-04-27T20:20:05.625Z,71.10
2017-04-27T20:22:34.072Z,71.50
2017-04-27T20:25:02.549Z,70.90
2017-04-27T20:27:30.889Z,72.00
2017-04-27T20:29:59.949Z,72.20
2017-04-27T20:32:28.688Z,70.90
2017-04-27T20:34:57.246Z,72.30
2017-04-27T20:37:26.295Z,72.00
2017-04-27T20:39:54.786Z,72.00
2017-04-27T20:42:23.107Z,72.20
2017-04-27T20:44:52.989Z,71.40
2017-04-27T20:47:21.348Z,70.90
2017-04-27T20:49:49.790Z,71.00
2017-04-27T20:52:18.427Z,71.00
2017-04-27T20:54:47.140Z,70.40
2017-04-27T20:57:16.203Z,70.80
2017-04-27T20:59:45.450Z,69.90
2017-04-27T21:02:14.047Z,70.40
2017-04-27T21:04:42.373Z,69.90
2017-04-27T21:07:11.905Z,70.40
2017-04-27T21:09:40.491Z,70.60
2017-04-27T21:12:09.552Z,70.00
2017-04-27T21:14:38.133Z,70.30
2017-04-27T21:17:06.796Z,69.70
2017-04-27T21:19:35.256Z,69.10
2017-04-27T21:22:03.599Z,69.20
2017-04-27T21:24:32.724Z,69.00
2017-04-27T21:27:01.262Z,68.90
2017-04-27T21:29:30.453Z,68.90
2017-04-27T21:31:58.840Z,69.30
2017-04-27T21:34:27.164Z,69.10
2017-04-27T21:36:56.821Z,70.60
2017-04-27T21:39:25.472Z,69.60
2017-04-27T21:41:53.785Z,69.60
2017-04-27T21:44:22.123Z,69.40
2017-04-27T21:46:50.838Z,69.30
2017-04-27T21:49:19.354Z,69.20
2017-04-27T21:51:48.521Z,69.30
2017-04-27T21:54:17.229Z,69.80
2017-04-27T21:56:46.887Z,70.10
2017-04-27T21:59:15.282Z,69.90
2017-04-27T22:01:43.821Z,69.80
2017-04-27T22:04:12.161Z,71.00
2017-04-27T22:06:40.731Z,70.80
2017-04-27T22:09:09.228Z,71.10
2017-04-27T22:11:38.322Z,71.10
2017-04-27T22:14:07.285Z,71.50
2017-04-27T22:16:35.989Z,71.70
2017-04-27T22:19:04.330Z,71.70
2017-04-27T22:21:32.659Z,71.80
2017-04-27T22:24:01.853Z,71.90
2017-04-27T22:26:30.182Z,71.90
2017-04-27T22:28:58.505Z,72.90
2017-04-27T22:31:26.956Z,73.10
2017-04-27T22:33:55.272Z,72.70
2017-04-27T22:36:23.592Z,72.40
2017-04-27T22:38:52.244Z,73.30
2017-04-27T22:41:21.301Z,73.00
2017-04-27T22:43:49.640Z,73.60
2017-04-27T22:46:18.201Z,73.40
2017-04-27T22:48:47.255Z,73.70
2017-04-27T22:51:15.573Z,74.50
2017-04-27T22:53:45.073Z,74.20
2017-04-27T22:56:14.135Z,74.30
2017-04-27T22:58:42.452Z,74.50
2017-04-27T23:01:10.830Z,75.30
2017-04-27T23:03:39.145Z,74.30
2017-04-27T23:06:07.480Z,74.90
2017-04-27T23:08:42.884Z,74.70
2017-04-27T23:11:11.209Z,74.60
2017-04-27T23:13:39.543Z,75.00
2017-04-27T23:16:08.204Z,74.70
2017-04-27T23:18:36.521Z,75.10
2017-04-27T23:21:04.890Z,75.00
2017-04-27T23:23:33.312Z,75.60
2017-04-27T23:26:01.632Z,75.30
2017-04-27T23:28:29.943Z,75.60
2017-04-27T23:30:59.341Z,76.90
2017-04-27T23:33:28.397Z,76.40
2017-04-27T23:35:56.707Z,76.50
2017-04-27T23:38:25.444Z,75.60
2017-04-27T23:40:53.768Z,76.40
2017-04-27T23:43:22.111Z,76.00
2017-04-27T23:45:50.656Z,76.20
2017-04-27T23:48:18.987Z,76.50
2017-04-27T23:50:47.309Z,76.30
2017-04-27T23:53:15.860Z,76.40
2017-04-27T23:55:44.171Z,76.70
2017-04-27T23:58:12.497Z,77.20
